Snezhinsk, Russia
Current Conditions -  °F | °C
As of 2:00 PM on Thursday 29 Jan 2015 (Local Time) from USSS Reporting Station
Clear Clear  
Wind Chill:   Ceiling: Unl
Heat Index: 18°   Visibility: 6mi
Dew Point: -4°   Wind: 9mph
Humidity: 38%   Direction: 230°SW
Pressure: 30.18"   Gusts: NA
Location:  56.09°N, 60.73°E
Report Text: USSS 290800Z 23004MPS CAVOK M08/M20 Q1022 76820350 NOSIG RMKQFE745
Loading
Personal Weather Stations






























Interactive Weather Map New forecast layout! Learn more

10-Day Weather Forecast

Advertisements
Track Severe Weather on mobile